createdAt,value
2022-08-08T00:02:04.007Z,4.13
2022-08-08T00:04:48.953Z,3.78
2022-08-08T00:07:37.911Z,3.70
2022-08-08T00:10:29.961Z,3.70
2022-08-08T00:14:17.442Z,3.53
2022-08-08T00:16:51.442Z,4.03
2022-08-08T00:19:35.308Z,4.07
2022-08-08T00:22:11.105Z,3.85
2022-08-08T00:24:45.914Z,3.42
2022-08-08T00:27:19.940Z,3.45
2022-08-08T00:30:03.712Z,3.40
2022-08-08T00:32:46.292Z,4.15
2022-08-08T00:35:51.778Z,3.70
2022-08-08T00:39:00.964Z,3.55
2022-08-08T00:42:31.430Z,4.13
2022-08-08T00:45:45.559Z,3.75
2022-08-08T00:48:59.267Z,4.00
2022-08-08T00:52:19.912Z,4.10
2022-08-08T00:54:56.026Z,4.38
2022-08-08T00:57:43.727Z,4.10
2022-08-08T01:00:19.572Z,5.93
2022-08-08T01:04:01.492Z,4.80
2022-08-08T01:06:33.404Z,4.60
2022-08-08T01:09:41.684Z,4.32
2022-08-08T01:12:47.253Z,4.20
2022-08-08T01:15:54.957Z,5.30
2022-08-08T01:18:54.130Z,4.97
2022-08-08T01:22:12.577Z,4.82
2022-08-08T01:24:56.234Z,4.07
2022-08-08T01:28:02.120Z,4.05
2022-08-08T01:30:53.802Z,4.47
2022-08-08T01:33:42.793Z,4.65
2022-08-08T01:36:50.985Z,4.50
2022-08-08T01:39:35.003Z,4.78
2022-08-08T01:42:21.520Z,4.55
2022-08-08T01:45:41.936Z,4.30
2022-08-08T01:48:48.474Z,4.95
2022-08-08T01:52:00.937Z,4.75
2022-08-08T01:55:27.165Z,5.80
2022-08-08T01:58:13.081Z,6.78
2022-08-08T02:01:00.545Z,6.18
2022-08-08T02:04:24.503Z,5.43
2022-08-08T02:07:49.631Z,4.55
2022-08-08T02:10:46.116Z,5.10
2022-08-08T02:13:54.834Z,4.75
2022-08-08T02:19:26.610Z,4.50
2022-08-08T02:22:32.291Z,4.90
2022-08-08T02:25:23.408Z,4.75
2022-08-08T02:28:05.626Z,4.65
2022-08-08T02:31:43.574Z,5.10
2022-08-08T02:34:36.111Z,5.00
2022-08-08T02:37:52.875Z,5.07
2022-08-08T02:40:50.133Z,4.38
2022-08-08T02:44:38.946Z,5.30
2022-08-08T02:46:54.597Z,4.90
2022-08-08T02:49:47.871Z,5.05
2022-08-08T02:52:38.326Z,5.22
2022-08-08T02:56:01.708Z,5.25
2022-08-08T02:58:59.490Z,5.07
2022-08-08T03:01:53.055Z,4.82
2022-08-08T03:05:02.558Z,5.32
2022-08-08T03:08:12.965Z,5.82
2022-08-08T03:11:25.978Z,4.80
2022-08-08T03:16:02.084Z,4.97
2022-08-08T03:17:59.630Z,4.80
2022-08-08T03:20:54.481Z,5.20
2022-08-08T03:23:56.498Z,4.80
2022-08-08T03:26:30.669Z,5.53
2022-08-08T03:29:03.283Z,5.18
2022-08-08T03:32:05.828Z,5.35
2022-08-08T03:34:41.518Z,5.57
2022-08-08T03:37:20.166Z,4.95
2022-08-08T03:40:06.355Z,5.28
2022-08-08T03:42:39.470Z,5.07
2022-08-08T03:46:02.969Z,5.15
2022-08-08T03:48:21.348Z,5.15
2022-08-08T03:50:58.250Z,5.50
2022-08-08T03:53:42.654Z,4.80
2022-08-08T03:56:32.228Z,5.10
2022-08-08T03:59:02.716Z,4.63
2022-08-08T04:02:31.670Z,5.30
2022-08-08T04:04:47.144Z,4.78
2022-08-08T04:07:39.274Z,4.25
2022-08-08T04:10:10.461Z,4.78
2022-08-08T04:12:39.592Z,4.68
2022-08-08T04:15:17.903Z,4.95
2022-08-08T04:18:07.042Z,4.90
2022-08-08T04:20:43.678Z,4.88
2022-08-08T04:23:22.694Z,4.72
2022-08-08T04:25:50.009Z,5.90
2022-08-08T04:28:37.115Z,6.35
2022-08-08T04:31:10.238Z,5.75
2022-08-08T04:34:00.291Z,4.70
2022-08-08T04:36:31.139Z,4.68
2022-08-08T04:39:47.809Z,5.78
2022-08-08T04:41:50.612Z,4.70
2022-08-08T04:44:18.779Z,4.80
2022-08-08T04:46:48.135Z,4.68
2022-08-08T04:49:28.702Z,5.18
2022-08-08T04:52:15.628Z,5.43
2022-08-08T04:54:45.966Z,4.97
2022-08-08T04:57:18.948Z,5.03
2022-08-08T04:59:52.519Z,5.43
2022-08-08T05:02:30.754Z,5.53
2022-08-08T05:05:06.243Z,4.90
2022-08-08T05:07:46.473Z,5.40
2022-08-08T05:10:18.010Z,5.03
2022-08-08T05:13:00.159Z,4.78
2022-08-08T05:16:47.886Z,4.70
2022-08-08T05:18:24.456Z,4.47
2022-08-08T05:20:58.700Z,4.53
2022-08-08T05:24:04.404Z,4.07
2022-08-08T05:26:46.947Z,4.57
2022-08-08T05:29:17.090Z,4.07
2022-08-08T05:32:03.444Z,4.72
2022-08-08T05:34:51.541Z,4.40
2022-08-08T05:37:48.997Z,4.80
2022-08-08T05:40:29.024Z,4.93
2022-08-08T05:43:38.162Z,4.90
2022-08-08T05:46:08.248Z,4.80
2022-08-08T05:48:42.502Z,4.82
2022-08-08T05:51:13.550Z,4.82
2022-08-08T05:54:27.238Z,5.35
2022-08-08T05:57:04.672Z,4.60
2022-08-08T06:00:00.731Z,4.45
2022-08-08T06:02:48.163Z,4.53
2022-08-08T06:05:33.822Z,4.30
2022-08-08T06:08:09.327Z,4.70
2022-08-08T06:10:46.504Z,4.72
2022-08-08T06:13:15.907Z,4.78
2022-08-08T06:15:53.578Z,4.63
2022-08-08T06:18:28.289Z,4.40
2022-08-08T06:21:28.198Z,4.05
2022-08-08T06:24:03.753Z,3.78
2022-08-08T06:27:10.323Z,3.78
2022-08-08T06:30:00.263Z,4.32
2022-08-08T06:33:09.327Z,4.13
2022-08-08T06:36:08.244Z,4.30
2022-08-08T06:38:47.156Z,4.07
2022-08-08T06:41:33.127Z,4.03
2022-08-08T06:44:24.929Z,6.03
2022-08-08T06:47:00.089Z,4.05
2022-08-08T06:49:56.687Z,4.00
2022-08-08T06:52:21.349Z,3.58
2022-08-08T06:54:59.527Z,3.95
2022-08-08T06:57:44.296Z,3.20
2022-08-08T07:00:30.088Z,3.40
2022-08-08T07:03:09.097Z,3.28
2022-08-08T07:06:01.644Z,3.20
2022-08-08T07:08:39.582Z,3.40
2022-08-08T07:11:57.339Z,2.80
2022-08-08T07:14:31.054Z,3.25
2022-08-08T07:18:02.051Z,3.10
2022-08-08T07:20:50.473Z,3.20
2022-08-08T07:24:01.199Z,2.85
2022-08-08T07:26:35.510Z,2.92
2022-08-08T07:29:08.175Z,3.00
2022-08-08T07:31:48.284Z,6.28
2022-08-08T07:34:26.879Z,3.50
2022-08-08T07:37:13.503Z,3.37
2022-08-08T07:39:57.777Z,3.25
2022-08-08T07:42:34.353Z,3.47
2022-08-08T07:45:01.964Z,3.03
2022-08-08T07:47:39.215Z,3.10
2022-08-08T07:50:26.461Z,2.85
2022-08-08T07:53:00.889Z,2.42
2022-08-08T07:55:36.449Z,2.88
2022-08-08T07:58:30.587Z,2.88
2022-08-08T08:01:08.369Z,2.92
2022-08-08T08:04:03.113Z,2.70
2022-08-08T08:06:38.497Z,2.63
2022-08-08T08:09:24.204Z,2.30
2022-08-08T08:12:35.632Z,2.50
2022-08-08T08:15:18.893Z,2.58
2022-08-08T08:18:14.175Z,2.38
2022-08-08T08:20:42.574Z,2.67
2022-08-08T08:23:09.586Z,2.45
2022-08-08T08:25:42.333Z,2.20
2022-08-08T08:28:23.941Z,2.10
2022-08-08T08:30:55.256Z,1.80
2022-08-08T08:33:27.318Z,2.25
2022-08-08T08:36:21.976Z,1.60
2022-08-08T08:38:54.716Z,1.80
2022-08-08T08:41:24.983Z,1.90
2022-08-08T08:44:14.109Z,1.95
2022-08-08T08:46:58.910Z,1.90
2022-08-08T08:49:38.468Z,2.00
2022-08-08T08:52:14.788Z,1.83
2022-08-08T08:54:55.871Z,1.88
2022-08-08T08:57:41.895Z,1.90
2022-08-08T09:00:17.126Z,1.45
2022-08-08T09:02:49.870Z,1.70
2022-08-08T09:05:48.909Z,2.25
2022-08-08T09:08:18.427Z,1.42
2022-08-08T09:10:52.479Z,1.75
2022-08-08T09:13:38.686Z,1.40
2022-08-08T09:16:09.429Z,1.67
2022-08-08T09:18:45.061Z,1.42
2022-08-08T09:21:57.372Z,1.40
2022-08-08T09:24:40.726Z,1.23
2022-08-08T09:27:20.086Z,1.40
2022-08-08T09:29:59.193Z,1.60
2022-08-08T09:32:38.134Z,1.30
2022-08-08T09:35:32.243Z,0.93
2022-08-08T09:38:09.421Z,1.00
2022-08-08T09:40:55.690Z,1.00
2022-08-08T09:43:40.790Z,1.20
2022-08-08T09:46:25.570Z,1.30
2022-08-08T09:49:04.388Z,0.90
2022-08-08T09:52:07.440Z,1.13
2022-08-08T09:54:44.102Z,1.40
2022-08-08T09:57:45.776Z,1.13
2022-08-08T10:03:19.950Z,1.30
2022-08-08T10:05:59.972Z,1.48
2022-08-08T10:08:47.545Z,1.10
2022-08-08T10:12:23.213Z,1.23
2022-08-08T10:14:28.112Z,1.00
2022-08-08T10:17:56.526Z,1.13
2022-08-08T10:20:10.453Z,0.90
2022-08-08T10:23:42.167Z,1.05
2022-08-08T10:26:57.454Z,0.98
2022-08-08T10:29:59.980Z,1.48
2022-08-08T10:32:48.467Z,0.90
2022-08-08T10:36:20.417Z,1.10
2022-08-08T10:38:35.151Z,1.05
2022-08-08T10:41:17.504Z,1.15
2022-08-08T10:43:52.100Z,1.40
2022-08-08T10:46:31.483Z,1.00
2022-08-08T10:49:00.587Z,1.02
2022-08-08T10:51:50.813Z,1.02
2022-08-08T10:54:25.238Z,1.30
2022-08-08T10:57:03.686Z,1.50
2022-08-08T10:59:39.669Z,1.23
2022-08-08T11:02:09.614Z,0.98
2022-08-08T11:04:53.226Z,1.25
2022-08-08T11:08:24.398Z,1.27
2022-08-08T11:10:39.399Z,1.25
2022-08-08T11:13:29.075Z,1.50
2022-08-08T11:16:07.456Z,1.08
2022-08-08T11:18:51.879Z,1.20
2022-08-08T11:21:35.349Z,1.00
2022-08-08T11:24:06.608Z,1.27
2022-08-08T11:26:56.926Z,1.38
2022-08-08T11:29:29.433Z,1.20
2022-08-08T11:32:15.735Z,1.10
2022-08-08T11:35:23.428Z,1.73
2022-08-08T11:38:39.340Z,1.27
2022-08-08T11:40:51.717Z,0.80
2022-08-08T11:43:39.346Z,1.00
2022-08-08T11:46:17.525Z,1.10
2022-08-08T11:49:17.274Z,1.00
2022-08-08T11:51:54.236Z,1.00
2022-08-08T11:54:46.371Z,1.75
2022-08-08T11:57:30.201Z,1.15
2022-08-08T12:02:54.722Z,1.20
2022-08-08T12:05:42.378Z,1.00
2022-08-08T12:08:11.387Z,1.13
2022-08-08T12:10:51.581Z,1.48
2022-08-08T12:16:20.873Z,1.40
2022-08-08T12:21:59.440Z,1.17
2022-08-08T12:24:48.448Z,1.48
2022-08-08T12:27:48.046Z,1.17
2022-08-08T12:32:49.603Z,1.15
2022-08-08T12:35:22.996Z,1.17
2022-08-08T12:38:08.840Z,1.00
2022-08-08T12:40:57.008Z,1.10
2022-08-08T12:43:43.532Z,1.08
2022-08-08T12:46:25.402Z,1.50
2022-08-08T12:51:58.363Z,1.00
2022-08-08T12:54:38.470Z,1.05
2022-08-08T12:57:26.095Z,1.30
2022-08-08T13:00:05.932Z,1.33
2022-08-08T13:02:52.503Z,1.00
2022-08-08T13:05:26.351Z,1.02
2022-08-08T13:08:33.439Z,1.10
2022-08-08T13:12:19.883Z,0.90
2022-08-08T13:14:53.262Z,1.17
2022-08-08T13:18:08.378Z,1.33
2022-08-08T13:20:20.991Z,1.10
2022-08-08T13:22:55.944Z,1.15
2022-08-08T13:25:36.026Z,1.40
2022-08-08T13:28:03.243Z,1.20
2022-08-08T13:30:31.312Z,1.00
2022-08-08T13:33:02.329Z,1.10
2022-08-08T13:35:38.571Z,1.52
2022-08-08T13:38:21.251Z,1.20
2022-08-08T13:40:56.858Z,1.10
2022-08-08T13:43:26.127Z,1.13
2022-08-08T13:46:26.412Z,1.00
2022-08-08T13:49:12.327Z,1.30
2022-08-08T13:52:03.933Z,1.50
2022-08-08T13:54:49.606Z,1.10
2022-08-08T13:57:18.475Z,1.20
2022-08-08T14:00:26.248Z,1.30
2022-08-08T14:03:47.343Z,1.15
2022-08-08T14:06:32.338Z,1.10
2022-08-08T14:09:18.435Z,1.15
2022-08-08T14:12:00.781Z,1.17
2022-08-08T14:14:52.006Z,1.27
2022-08-08T14:17:36.230Z,1.25
2022-08-08T14:20:56.111Z,1.00
2022-08-08T14:23:20.977Z,1.15
2022-08-08T14:26:10.813Z,1.23
2022-08-08T14:28:39.776Z,1.00
2022-08-08T14:31:23.877Z,1.50
2022-08-08T14:34:00.202Z,1.60
2022-08-08T14:36:39.119Z,1.85
2022-08-08T14:39:11.631Z,1.13
2022-08-08T14:41:54.753Z,1.00
2022-08-08T14:44:33.523Z,1.35
2022-08-08T14:47:17.312Z,1.33
2022-08-08T14:50:06.203Z,1.40
2022-08-08T14:52:43.074Z,1.10
2022-08-08T14:58:06.067Z,0.95
2022-08-08T15:00:34.465Z,1.70
2022-08-08T15:03:15.539Z,1.80
2022-08-08T15:05:53.422Z,1.40
2022-08-08T15:08:34.703Z,1.20
2022-08-08T15:11:08.948Z,1.20
2022-08-08T15:13:40.954Z,1.00
2022-08-08T15:16:24.301Z,1.40
2022-08-08T15:18:52.525Z,1.05
2022-08-08T15:21:21.465Z,1.48
2022-08-08T15:23:51.121Z,1.20
2022-08-08T15:26:20.619Z,1.00
2022-08-08T15:28:53.024Z,1.13
2022-08-08T15:31:56.339Z,1.40
2022-08-08T15:34:28.917Z,1.80
2022-08-08T15:37:02.100Z,1.70
2022-08-08T15:39:33.284Z,1.92
2022-08-08T15:42:41.402Z,2.58
2022-08-08T15:45:08.784Z,1.48
2022-08-08T15:47:38.281Z,1.23
2022-08-08T15:50:20.612Z,1.20
2022-08-08T15:52:58.951Z,1.70
2022-08-08T15:55:47.345Z,1.60
2022-08-08T15:58:28.221Z,1.45
2022-08-08T16:00:55.550Z,1.52
2022-08-08T16:03:23.652Z,1.20
2022-08-08T16:05:53.188Z,1.30
2022-08-08T16:09:02.228Z,1.20
2022-08-08T16:13:11.833Z,1.05
2022-08-08T16:14:32.587Z,1.20
2022-08-08T16:17:10.225Z,1.50
2022-08-08T16:19:56.932Z,1.13
2022-08-08T16:22:31.121Z,1.30
2022-08-08T16:25:05.733Z,1.40
2022-08-08T16:27:33.921Z,1.10
2022-08-08T16:30:10.539Z,1.40
2022-08-08T16:33:12.142Z,1.25
2022-08-08T16:35:40.297Z,1.20
2022-08-08T16:38:31.835Z,1.48
2022-08-08T16:41:00.277Z,1.50
2022-08-08T16:43:48.869Z,1.42
2022-08-08T16:46:36.966Z,1.38
2022-08-08T16:49:12.059Z,1.60
2022-08-08T16:54:59.759Z,1.45
2022-08-08T16:55:03.432Z,1.50
2022-08-08T16:58:13.410Z,1.50
2022-08-08T17:00:26.465Z,2.03
2022-08-08T17:03:10.955Z,2.15
2022-08-08T17:05:45.241Z,1.70
2022-08-08T17:08:13.953Z,1.70
2022-08-08T17:10:53.523Z,1.85
2022-08-08T17:13:50.183Z,1.50
2022-08-08T17:16:30.194Z,1.50
2022-08-08T17:19:00.697Z,1.17
2022-08-08T17:21:41.588Z,1.48
2022-08-08T17:24:28.070Z,1.60
2022-08-08T17:27:01.032Z,1.48
2022-08-08T17:29:33.463Z,1.60
2022-08-08T17:32:04.529Z,1.52
2022-08-08T17:37:32.650Z,1.27
2022-08-08T17:40:10.451Z,1.73
2022-08-08T17:42:47.422Z,1.40
2022-08-08T17:45:22.451Z,2.00
2022-08-08T17:47:54.045Z,1.58
2022-08-08T17:50:27.759Z,1.50
2022-08-08T17:52:57.463Z,1.92
2022-08-08T17:56:04.874Z,1.90
2022-08-08T17:58:16.034Z,1.67
2022-08-08T18:00:47.561Z,1.88
2022-08-08T18:03:23.589Z,1.77
2022-08-08T18:06:03.058Z,1.75
2022-08-08T18:09:24.900Z,1.70
2022-08-08T18:12:04.171Z,1.70
2022-08-08T18:14:40.845Z,1.77
2022-08-08T18:17:17.382Z,1.80
2022-08-08T18:20:43.081Z,1.55
2022-08-08T18:22:50.731Z,1.92
2022-08-08T18:25:20.770Z,1.70
2022-08-08T18:27:49.761Z,2.00
2022-08-08T18:30:17.487Z,1.90
2022-08-08T18:32:45.391Z,1.70
2022-08-08T18:35:19.141Z,1.50
2022-08-08T18:37:48.513Z,1.90
2022-08-08T18:40:16.370Z,2.05
2022-08-08T18:42:50.426Z,3.78
2022-08-08T18:46:00.970Z,2.38
2022-08-08T18:48:07.424Z,2.00
2022-08-08T18:50:39.492Z,2.20
2022-08-08T18:53:17.444Z,1.63
2022-08-08T18:55:47.707Z,1.98
2022-08-08T18:58:18.386Z,2.13
2022-08-08T19:00:52.355Z,2.40
2022-08-08T19:03:23.053Z,2.35
2022-08-08T19:05:52.751Z,2.35
2022-08-08T19:08:24.891Z,2.20
2022-08-08T19:10:59.064Z,2.20
2022-08-08T19:13:53.417Z,2.50
2022-08-08T19:16:28.498Z,1.98
2022-08-08T19:19:02.308Z,2.60
2022-08-08T19:21:48.444Z,2.30
2022-08-08T19:24:42.740Z,2.40
2022-08-08T19:27:07.164Z,2.00
2022-08-08T19:29:42.390Z,10.70
2022-08-08T19:32:19.449Z,3.80
2022-08-08T19:34:55.190Z,2.65
2022-08-08T19:37:43.816Z,2.08
2022-08-08T19:40:22.188Z,2.25
2022-08-08T19:42:58.552Z,2.10
2022-08-08T19:45:58.390Z,2.38
2022-08-08T19:48:29.068Z,2.20
2022-08-08T19:51:01.116Z,2.40
2022-08-08T19:53:51.149Z,2.30
2022-08-08T19:56:25.966Z,2.58
2022-08-08T19:59:13.630Z,2.20
2022-08-08T20:02:01.595Z,2.45
2022-08-08T20:04:30.041Z,2.50
2022-08-08T20:07:05.337Z,2.30
2022-08-08T20:09:56.408Z,2.33
2022-08-08T20:12:35.576Z,2.58
2022-08-08T20:15:16.716Z,2.67
2022-08-08T20:17:48.011Z,2.88
2022-08-08T20:20:26.604Z,3.00
2022-08-08T20:23:12.410Z,2.83
2022-08-08T20:25:45.825Z,2.97
2022-08-08T20:28:22.477Z,5.93
2022-08-08T20:30:59.849Z,9.40
2022-08-08T20:34:27.307Z,6.90
2022-08-08T20:36:29.723Z,4.00
2022-08-08T20:38:58.914Z,3.63
2022-08-08T20:41:33.824Z,3.60
2022-08-08T20:44:02.208Z,3.70
2022-08-08T20:46:49.201Z,3.40
2022-08-08T20:49:20.369Z,4.25
2022-08-08T20:51:52.076Z,2.90
2022-08-08T20:54:26.336Z,2.85
2022-08-08T20:57:43.980Z,2.90
2022-08-08T21:00:16.116Z,3.25
2022-08-08T21:02:48.643Z,3.30
2022-08-08T21:05:23.173Z,3.30
2022-08-08T21:08:36.586Z,3.35
2022-08-08T21:11:01.106Z,3.80
2022-08-08T21:13:41.025Z,3.95
2022-08-08T21:16:20.790Z,3.60
2022-08-08T21:18:57.895Z,3.85
2022-08-08T21:21:41.163Z,3.97
2022-08-08T21:24:20.937Z,3.40
2022-08-08T21:26:59.398Z,3.60
2022-08-08T21:30:05.299Z,3.95
2022-08-08T21:32:24.885Z,3.70
2022-08-08T21:36:14.585Z,3.83
2022-08-08T21:38:04.163Z,3.80
2022-08-08T21:40:35.775Z,4.40
2022-08-08T21:43:10.164Z,3.78
2022-08-08T21:45:44.393Z,4.80
2022-08-08T21:48:41.268Z,4.10
2022-08-08T21:51:13.212Z,4.00
2022-08-08T21:54:22.737Z,3.80
2022-08-08T21:56:42.078Z,3.85
2022-08-08T21:59:17.034Z,3.95
2022-08-08T22:02:10.859Z,3.85
2022-08-08T22:04:59.534Z,5.32
2022-08-08T22:07:40.697Z,10.93
2022-08-08T22:10:32.330Z,4.57
2022-08-08T22:13:16.993Z,4.22
2022-08-08T22:16:01.286Z,3.90
2022-08-08T22:18:40.394Z,4.10
2022-08-08T22:21:15.463Z,4.18
2022-08-08T22:23:51.387Z,4.15
2022-08-08T22:26:30.981Z,4.47
2022-08-08T22:29:56.485Z,3.92
2022-08-08T22:32:01.620Z,4.40
2022-08-08T22:34:41.546Z,4.07
2022-08-08T22:37:27.670Z,4.05
2022-08-08T22:40:12.001Z,4.18
2022-08-08T22:42:50.878Z,3.97
2022-08-08T22:47:51.880Z,4.70
2022-08-08T22:50:38.570Z,4.72
2022-08-08T22:54:29.354Z,4.72
2022-08-08T22:56:04.941Z,5.10
2022-08-08T22:58:40.310Z,5.25
2022-08-08T23:01:30.265Z,5.00
2022-08-08T23:03:58.777Z,6.40
2022-08-08T23:06:33.273Z,5.90
2022-08-08T23:09:30.667Z,6.10
2022-08-08T23:12:28.731Z,5.80
2022-08-08T23:14:53.292Z,5.10
2022-08-08T23:17:24.235Z,5.28
2022-08-08T23:22:26.752Z,6.03
2022-08-08T23:24:57.367Z,6.40
2022-08-08T23:27:38.212Z,6.15
2022-08-08T23:30:14.594Z,6.85
2022-08-08T23:32:44.123Z,6.40
2022-08-08T23:35:18.671Z,6.00
2022-08-08T23:38:03.269Z,6.60
2022-08-08T23:40:31.927Z,6.85
2022-08-08T23:43:02.697Z,6.57
2022-08-08T23:49:04.328Z,6.10
2022-08-08T23:49:04.765Z,6.25
2022-08-08T23:51:12.650Z,6.60
2022-08-08T23:54:05.890Z,6.68
2022-08-08T23:56:58.862Z,7.32
2022-08-08T23:59:32.076Z,6.45
